Time,TemperatureF,DewpointF,PressureIn,WindDirection,WindDirectionDegrees,WindSpeedMPH,WindSpeedGustMPH,Humidity,HourlyPrecipIn,Conditions,Clouds,dailyrainin,SoftwareType,DateUTC
2013-08-10 00:14:00,60.8,58.0,25.98,NE,34,4.0,7.0,90,0.00,,,0.00,weatherlink.com 1.10,2013-08-10 06:14:00,
2013-08-10 00:29:00,61.1,58.0,25.98,ENE,64,4.0,6.0,89,0.00,,,0.00,weatherlink.com 1.10,2013-08-10 06:29:00,
2013-08-10 00:44:00,60.9,58.0,25.98,ENE,67,2.0,6.0,90,0.00,,,0.00,weatherlink.com 1.10,2013-08-10 06:44:00,
2013-08-10 00:59:00,60.7,58.0,25.98,ENE,74,5.0,6.0,91,0.00,,,0.00,weatherlink.com 1.10,2013-08-10 06:59:00,
2013-08-10 01:15:00,60.3,58.0,25.97,East,82,4.0,5.0,92,0.00,,,0.00,weatherlink.com 1.10,2013-08-10 07:15:00,
2013-08-10 01:30:00,60.7,58.0,25.97,East,96,5.0,8.0,90,0.00,,,0.00,weatherlink.com 1.10,2013-08-10 07:30:00,
2013-08-10 01:45:00,60.3,58.0,25.96,SE,129,7.0,8.0,91,0.00,,,0.00,weatherlink.com 1.10,2013-08-10 07:45:00,
2013-08-10 02:00:00,60.3,58.0,25.98,WNW,291,2.0,6.0,91,0.00,,,0.00,weatherlink.com 1.10,2013-08-10 08:00:00,
2013-08-10 02:15:00,61.1,57.0,25.99,WNW,300,5.0,12.0,87,0.00,,,0.00,weatherlink.com 1.10,2013-08-10 08:15:00,
2013-08-10 02:30:00,61.6,57.0,25.98,NE,34,3.0,4.0,85,0.00,,,0.00,weatherlink.com 1.10,2013-08-10 08:30:00,
2013-08-10 02:45:00,61.5,56.0,25.97,East,96,7.0,7.0,83,0.00,,,0.00,weatherlink.com 1.10,2013-08-10 08:45:00,
2013-08-10 03:00:00,60.7,57.0,25.96,East,80,2.0,4.0,87,0.00,,,0.00,weatherlink.com 1.10,2013-08-10 09:00:00,
2013-08-10 03:15:00,59.7,57.0,25.95,ESE,110,6.0,6.0,89,0.00,,,0.00,weatherlink.com 1.10,2013-08-10 09:15:00,
2013-08-10 03:30:00,58.7,56.0,25.94,SSE,163,4.0,5.0,90,0.00,,,0.00,weatherlink.com 1.10,2013-08-10 09:30:00,
2013-08-10 03:45:00,58.3,56.0,25.94,SE,133,3.0,4.0,91,0.00,,,0.00,weatherlink.com 1.10,2013-08-10 09:45:00,
2013-08-10 04:00:00,58.2,56.0,25.94,SSE,155,2.0,5.0,91,0.00,,,0.00,weatherlink.com 1.10,2013-08-10 10:00:00,
2013-08-10 04:15:00,57.8,55.0,25.94,South,181,2.0,4.0,91,0.00,,,0.00,weatherlink.com 1.10,2013-08-10 10:15:00,
2013-08-10 04:30:00,57.3,55.0,25.93,SSE,167,1.0,4.0,91,0.00,,,0.00,weatherlink.com 1.10,2013-08-10 10:30:00,
2013-08-10 04:45:00,56.9,55.0,25.93,SSE,163,1.0,2.0,92,0.00,,,0.00,weatherlink.com 1.10,2013-08-10 10:45:00,
2013-08-10 05:00:00,56.8,55.0,25.93,SSE,165,2.0,4.0,92,0.00,,,0.00,weatherlink.com 1.10,2013-08-10 11:00:00,
2013-08-10 05:15:00,56.8,55.0,25.93,SE,145,3.0,4.0,93,0.00,,,0.00,weatherlink.com 1.10,2013-08-10 11:15:00,
2013-08-10 05:30:00,56.8,55.0,25.93,SSW,198,2.0,4.0,93,0.00,,,0.00,weatherlink.com 1.10,2013-08-10 11:30:00,
2013-08-10 05:45:00,56.7,55.0,25.93,SSW,201,4.0,5.0,93,0.00,,,0.00,weatherlink.com 1.10,2013-08-10 11:45:00,
2013-08-10 06:00:00,56.7,55.0,25.93,South,174,2.0,5.0,92,0.00,,,0.00,weatherlink.com 1.10,2013-08-10 12:00:00,
2013-08-10 06:15:00,56.4,55.0,25.93,SSW,212,1.0,5.0,93,0.00,,,0.00,weatherlink.com 1.10,2013-08-10 12:15:00,
2013-08-10 06:30:00,56.5,55.0,25.94,SW,222,5.0,7.0,93,0.00,,,0.00,weatherlink.com 1.10,2013-08-10 12:30:00,
2013-08-10 06:45:00,57.5,55.0,25.94,SSE,159,7.0,8.0,92,0.00,,,0.00,weatherlink.com 1.10,2013-08-10 12:45:00,
2013-08-10 07:00:00,58.3,56.0,25.93,South,180,4.0,9.0,91,0.00,,,0.00,weatherlink.com 1.10,2013-08-10 13:00:00,
2013-08-10 07:15:00,60.0,57.0,25.93,WSW,238,4.0,6.0,90,0.00,,,0.00,weatherlink.com 1.10,2013-08-10 13:15:00,
2013-08-10 07:30:00,60.8,57.0,25.94,SW,221,5.0,10.0,87,0.00,,,0.00,weatherlink.com 1.10,2013-08-10 13:30:00,
2013-08-10 07:45:00,61.6,57.0,25.93,SW,221,6.0,8.0,85,0.00,,,0.00,weatherlink.com 1.10,2013-08-10 13:45:00,
2013-08-10 08:00:00,62.9,58.0,25.93,SSW,210,8.0,10.0,84,0.00,,,0.00,weatherlink.com 1.10,2013-08-10 14:00:00,
2013-08-10 08:15:00,64.0,58.0,25.93,SSW,198,6.0,13.0,81,0.00,,,0.00,weatherlink.com 1.10,2013-08-10 14:15:00,
2013-08-10 08:30:00,65.5,59.0,25.93,West,274,5.0,11.0,79,0.00,,,0.00,weatherlink.com 1.10,2013-08-10 14:30:00,
2013-08-10 08:45:00,66.6,58.0,25.94,WSW,253,6.0,11.0,74,0.00,,,0.00,weatherlink.com 1.10,2013-08-10 14:45:00,
2013-08-10 09:01:00,68.3,57.0,25.94,West,264,8.0,13.0,67,0.00,,,0.00,weatherlink.com 1.10,2013-08-10 15:01:00,
2013-08-10 09:16:00,69.3,57.0,25.93,SW,214,6.0,13.0,66,0.00,,,0.00,weatherlink.com 1.10,2013-08-10 15:16:00,
2013-08-10 09:31:00,70.4,57.0,25.93,WSW,247,4.0,13.0,63,0.00,,,0.00,weatherlink.com 1.10,2013-08-10 15:31:00,
2013-08-10 09:46:00,71.5,57.0,25.94,SW,234,6.0,12.0,61,0.00,,,0.00,weatherlink.com 1.10,2013-08-10 15:46:00,
2013-08-10 10:01:00,72.4,57.0,25.93,SW,228,5.0,14.0,59,0.00,,,0.00,weatherlink.com 1.10,2013-08-10 16:01:00,
2013-08-10 10:16:00,73.0,56.0,25.93,WSW,238,10.0,17.0,55,0.00,,,0.00,weatherlink.com 1.10,2013-08-10 16:16:00,
2013-08-10 10:31:00,74.0,56.0,25.93,WSW,257,10.0,15.0,53,0.00,,,0.00,weatherlink.com 1.10,2013-08-10 16:31:00,
2013-08-10 10:46:00,74.2,56.0,25.93,WSW,252,10.0,14.0,54,0.00,,,0.00,weatherlink.com 1.10,2013-08-10 16:46:00,
2013-08-10 11:01:00,75.3,56.0,25.93,WSW,248,8.0,12.0,51,0.00,,,0.00,weatherlink.com 1.10,2013-08-10 17:01:00,
2013-08-10 11:16:00,76.0,58.0,25.92,South,176,5.0,13.0,53,0.00,,,0.00,weatherlink.com 1.10,2013-08-10 17:16:00,
2013-08-10 11:31:00,76.6,57.0,25.92,South,170,3.0,15.0,50,0.00,,,0.00,weatherlink.com 1.10,2013-08-10 17:31:00,
2013-08-10 11:46:00,77.2,58.0,25.92,SSW,193,7.0,15.0,51,0.00,,,0.00,weatherlink.com 1.10,2013-08-10 17:46:00,
2013-08-10 12:01:00,78.5,56.0,25.91,SSW,204,12.0,15.0,46,0.00,,,0.00,weatherlink.com 1.10,2013-08-10 18:01:00,
2013-08-10 12:16:00,79.1,55.0,25.91,SSE,159,7.0,14.0,44,0.00,,,0.00,weatherlink.com 1.10,2013-08-10 18:16:00,
2013-08-10 12:31:00,80.2,57.0,25.91,SW,225,9.0,16.0,45,0.00,,,0.00,weatherlink.com 1.10,2013-08-10 18:31:00,
2013-08-10 12:46:00,81.2,57.0,25.90,SSW,203,5.0,12.0,43,0.00,,,0.00,weatherlink.com 1.10,2013-08-10 18:46:00,
2013-08-10 13:01:00,81.8,54.0,25.90,WSW,255,7.0,14.0,39,0.00,,,0.00,weatherlink.com 1.10,2013-08-10 19:01:00,
2013-08-10 13:16:00,82.5,55.0,25.90,WSW,245,9.0,14.0,39,0.00,,,0.00,weatherlink.com 1.10,2013-08-10 19:16:00,
2013-08-10 13:31:00,83.0,54.0,25.89,WNW,294,5.0,12.0,37,0.00,,,0.00,weatherlink.com 1.10,2013-08-10 19:31:00,
2013-08-10 13:46:00,83.7,54.0,25.89,West,263,7.0,10.0,36,0.00,,,0.00,weatherlink.com 1.10,2013-08-10 19:46:00,
2013-08-10 14:02:00,84.1,54.0,25.88,WNW,287,9.0,11.0,36,0.00,,,0.00,weatherlink.com 1.10,2013-08-10 20:02:00,
2013-08-10 14:17:00,85.6,56.0,25.88,WSW,258,7.0,10.0,36,0.00,,,0.00,weatherlink.com 1.10,2013-08-10 20:17:00,
2013-08-10 14:32:00,85.1,51.0,25.87,SSW,212,5.0,10.0,31,0.00,,,0.00,weatherlink.com 1.10,2013-08-10 20:32:00,
2013-08-10 14:47:00,86.0,53.0,25.87,NNE,14,3.0,12.0,32,0.00,,,0.00,weatherlink.com 1.10,2013-08-10 20:47:00,
2013-08-10 15:02:00,86.6,53.0,25.86,West,265,3.0,10.0,32,0.00,,,0.00,weatherlink.com 1.10,2013-08-10 21:02:00,
2013-08-10 15:17:00,87.0,52.0,25.86,SSW,193,5.0,11.0,30,0.00,,,0.00,weatherlink.com 1.10,2013-08-10 21:17:00,
2013-08-10 15:32:00,87.1,51.0,25.85,SSW,207,4.0,9.0,29,0.00,,,0.00,weatherlink.com 1.10,2013-08-10 21:32:00,
2013-08-10 15:47:00,87.5,51.0,25.85,WNW,283,1.0,10.0,28,0.00,,,0.00,weatherlink.com 1.10,2013-08-10 21:47:00,
2013-08-10 16:02:00,88.8,50.0,25.84,NNW,328,1.0,3.0,26,0.00,,,0.00,weatherlink.com 1.10,2013-08-10 22:02:00,
2013-08-10 16:17:00,90.2,50.0,25.85,South,180,7.0,7.0,25,0.00,,,0.00,weatherlink.com 1.10,2013-08-10 22:17:00,
2013-08-10 16:32:00,87.8,51.0,25.84,SW,229,8.0,13.0,28,0.00,,,0.00,weatherlink.com 1.10,2013-08-10 22:32:00,
2013-08-10 16:47:00,87.2,51.0,25.84,SE,145,5.0,7.0,29,0.00,,,0.00,weatherlink.com 1.10,2013-08-10 22:47:00,
2013-08-10 17:02:00,87.4,52.0,25.84,WSW,255,6.0,7.0,30,0.00,,,0.00,weatherlink.com 1.10,2013-08-10 23:02:00,
2013-08-10 17:17:00,86.1,51.0,25.84,SSW,212,4.0,7.0,30,0.00,,,0.00,weatherlink.com 1.10,2013-08-10 23:17:00,
2013-08-10 17:32:00,86.1,53.0,25.84,South,169,4.0,8.0,32,0.00,,,0.00,weatherlink.com 1.10,2013-08-10 23:32:00,
2013-08-10 17:47:00,84.7,53.0,25.83,SSE,165,7.0,7.0,33,0.00,,,0.00,weatherlink.com 1.10,2013-08-10 23:47:00,
2013-08-10 18:02:00,83.6,53.0,25.84,South,186,4.0,6.0,35,0.00,,,0.00,weatherlink.com 1.10,2013-08-11 00:02:00,
2013-08-10 18:17:00,82.5,56.0,25.84,SSE,159,2.0,4.0,40,0.00,,,0.00,weatherlink.com 1.10,2013-08-11 00:17:00,
2013-08-10 18:32:00,81.5,56.0,25.84,SSE,166,2.0,4.0,42,0.00,,,0.00,weatherlink.com 1.10,2013-08-11 00:32:00,
2013-08-10 18:47:00,80.2,56.0,25.85,SW,215,4.0,7.0,43,0.00,,,0.00,weatherlink.com 1.10,2013-08-11 00:47:00,
2013-08-10 19:02:00,79.4,57.0,25.85,SSE,150,5.0,11.0,46,0.00,,,0.00,weatherlink.com 1.10,2013-08-11 01:02:00,
2013-08-10 19:17:00,78.5,57.0,25.84,WSW,238,6.0,10.0,47,0.00,,,0.00,weatherlink.com 1.10,2013-08-11 01:17:00,
2013-08-10 19:32:00,78.4,56.0,25.84,SW,217,9.0,12.0,46,0.00,,,0.00,weatherlink.com 1.10,2013-08-11 01:32:00,
2013-08-10 19:47:00,77.0,57.0,25.83,WSW,255,8.0,16.0,50,0.00,,,0.00,weatherlink.com 1.10,2013-08-11 01:47:00,
2013-08-10 20:02:00,76.5,56.0,25.84,WSW,256,9.0,15.0,50,0.00,,,0.00,weatherlink.com 1.10,2013-08-11 02:02:00,
2013-08-10 20:17:00,75.6,55.0,25.82,West,259,12.0,17.0,49,0.00,,,0.00,weatherlink.com 1.10,2013-08-11 02:17:00,
2013-08-10 20:32:00,75.7,52.0,25.82,WSW,256,11.0,18.0,44,0.00,,,0.00,weatherlink.com 1.10,2013-08-11 02:32:00,
2013-08-10 20:47:00,75.1,54.0,25.84,SW,232,12.0,22.0,48,0.00,,,0.00,weatherlink.com 1.10,2013-08-11 02:47:00,
2013-08-10 21:02:00,73.5,56.0,25.84,WSW,249,7.0,15.0,54,0.00,,,0.00,weatherlink.com 1.10,2013-08-11 03:02:00,
2013-08-10 21:32:00,69.8,54.0,25.86,West,280,7.0,13.0,58,0.00,,,0.00,weatherlink.com 1.10,2013-08-11 03:32:00,
2013-08-10 21:47:00,69.1,55.0,25.86,West,274,7.0,13.0,61,0.00,,,0.00,weatherlink.com 1.10,2013-08-11 03:47:00,
2013-08-10 22:02:00,68.2,55.0,25.86,West,267,4.0,9.0,64,0.00,,,0.00,weatherlink.com 1.10,2013-08-11 04:02:00,
2013-08-10 22:18:00,67.4,56.0,25.86,SW,228,8.0,8.0,66,0.00,,,0.00,weatherlink.com 1.10,2013-08-11 04:18:00,
2013-08-10 22:32:00,67.2,56.0,25.87,WSW,255,3.0,8.0,67,0.00,,,0.00,weatherlink.com 1.10,2013-08-11 04:32:00,
2013-08-10 22:47:00,67.4,56.0,25.88,SW,235,2.0,10.0,66,0.00,,,0.00,weatherlink.com 1.10,2013-08-11 04:47:00,
2013-08-10 23:02:00,67.3,56.0,25.89,WSW,255,2.0,5.0,67,0.00,,,0.00,weatherlink.com 1.10,2013-08-11 05:02:00,
2013-08-10 23:17:00,66.7,56.0,25.89,SW,223,4.0,6.0,68,0.00,,,0.00,weatherlink.com 1.10,2013-08-11 05:17:00,
2013-08-10 23:32:00,66.8,56.0,25.90,WSW,249,9.0,10.0,69,0.00,,,0.00,weatherlink.com 1.10,2013-08-11 05:32:00,
2013-08-10 23:47:00,67.0,56.0,25.89,West,260,7.0,10.0,69,0.00,,,0.00,weatherlink.com 1.10,2013-08-11 05:47:00,